NY Terminal Aviation Weather Discussion (AFD) - Prepared: 1031 PM EDT THU AUG 28 2014
HIGH PRESSURE OVER THE GREAT LAKES BUILDS IN THROUGH FRIDAY WITH VFR 
EXPECTED. 

N-NW FLOW...DIRECTION MAINLY RIGHT OF 310 DEGREES MAGNETIC IS
GENERALLY SUBSIDING THIS EVENING WITH GUSTS DIMINISHING. THE
EXCEPTION IS AROUND THE NYC METRO INCLUDING LGA/EWR/JFK WHERE
GUSTS ARE CONTINUING LONGER THAN EXPECTED AND MAY PERSIST THROUGH
4-5Z.

WEAK PRESSURE GRADIENT LATE TONIGHT INTO FRIDAY WILL ALLOW
FOR LIGHT N-E WINDS EVENTUALLY BECOMING S-SE WITH SEA BREEZES AT
ALL COASTAL TERMINALS FRIDAY AFTERNOON. WIND SPEEDS FRIDAY
GENERALLY LESS THAN 10KT.

5 Day General Aviation Outlook:

.OUTLOOK FOR 03Z SAT THROUGH TUE...
.FRI NIGHT-SAT...VFR.
.SUN-TUE...MAINLY VFR. POSSIBLE MVFR CONDITIONS WITH POTENTIAL 
SHOWERS AND THUNDERSTORMS SUN AFTERNOON THROUGH TUE.


NY Metro Terminal Aviation Weather Summary: (Explanation of Color Coding)
NOTE: All Wind Directions are TRUE (add 13 degrees for magnetic directions). Tail and Crosswind Calculations do account for the magnetic deviation of runways.

Click on the Airport Below for Specific Information at that Terminal

TAF Overview JFK TAF LGA TAF EWR TAF TEB TAF HPN TAF ISP TAF

Jump to AirSpace Impacts Section Condensed "lite" version of SPA page
**************************************************************************************
KJFK Terminal Weather: (Wind Directions Are True, Except Where Noted, ADD 13 degrees for Magnetic)

5MIN KJFK 290310Z 33010KT 10SM CLR 21/08 A3004 -90 43 
     600 340/10 RMK AO2
5MIN KJFK 290305Z 33012KT 10SM CLR 21/08 A3004 -90 42 
     600 340/12 RMK AO2
********************************************
****        MAGNETIC DIRECTIONS         ****
********************************************
KJFK 08/29/2014 03:25:40 GMT 340 11 KT
KJFK 08/29/2014 03:23:40 GMT 330 12 KT
KJFK 08/29/2014 03:21:40 GMT 340 11 KT
KJFK 08/29/2014 03:19:40 GMT 350 11 KT
KJFK 08/29/2014 03:17:40 GMT 340 12 KT
KJFK 08/29/2014 03:15:40 GMT 340 11 G18KT
KJFK 08/29/2014 03:13:40 GMT 340 13 G18KT
KJFK 08/29/2014 03:11:40 GMT 340 12 G18KT
KJFK 08/29/2014 03:09:40 GMT 340 12 G18KT
KJFK 08/29/2014 03:07:40 GMT 340 13 G18KT
SAUS70 KJFK 290300 RRI
METAR KJFK 290251Z 33014G19KT 10SM FEW070 21/08 A3004 RMK AO2 SLP173
     T02110078 51029
FTNA35 KJFK 290239 RRC
KJFK 290231Z 2903/3006 34015KT P6SM FEW050
     FM290400 35012KT P6SM SKC
     FM290900 36008KT P6SM SKC
     FM291500 03007KT P6SM SKC
     FM291800 16011KT P6SM SKC
     FM300000 15007KT P6SM SKC
KJFK Forecaster Comments Not Available at This Time
jfk

JFK Hourly Forecast Temperature (C)

JFK Hourly TMPS
**************************************************************************************
KLGA Terminal Weather: (Wind Directions Are True, Except Where Noted, ADD 13 degrees for Magnetic)

5MIN KLGA 290310Z 33010KT 10SM CLR 21/09 A3003 -80 46 
     600 340/10 RMK AO2
5MIN KLGA 290305Z 34006KT 10SM CLR 21/09 A3004 -80 46 
     600 350/06 RMK AO2
********************************************
****        MAGNETIC DIRECTIONS         ****
********************************************
KLGA 08/29/2014 03:25:52 GMT 350 11 KT
KLGA 08/29/2014 03:23:53 GMT 350 10 KT
KLGA 08/29/2014 03:21:53 GMT 350 12 KT
KLGA 08/29/2014 03:19:53 GMT 360 13 KT
KLGA 08/29/2014 03:17:53 GMT 350 12 KT
KLGA 08/29/2014 03:15:52 GMT 360 11 KT
KLGA 08/29/2014 03:13:53 GMT 360 10 KT
KLGA 08/29/2014 03:11:53 GMT 360 10 KT
KLGA 08/29/2014 03:09:53 GMT 360 11 KT
KLGA 08/29/2014 03:07:53 GMT 340 11 KT
SAUS70 KLGA 290300
METAR KLGA 290251Z 33010KT 10SM CLR 21/09 A3004 RMK AO2 SLP170 T02060094
     51028
FTUS80 KLGA 290233 AAB
KLGA 290231Z 2903/2924 33015G24KT P6SM FEW050
     FM290400 35012KT P6SM SKC
     FM290900 01007KT P6SM SKC
     FM291400 04007KT P6SM SKC
     FM291800 06008KT P6SM SKC
     FM292100 16009KT P6SM SKC
KLGA Forecaster Comments Not Available at This Time
lga


**************************************************************************************

KEWR Terminal Weather: (Wind Directions Are True, Except Where Noted, ADD 13 degrees for Magnetic)

5MIN KEWR 290320Z 32008KT 10SM FEW060 20/08 A3005 -100 
     45 500 330/08 RMK AO2
5MIN KEWR 290315Z 33010KT 10SM FEW060 20/08 A3005 -100 
     45 500 340/10 RMK AO2
********************************************
****        MAGNETIC DIRECTIONS         ****
********************************************
KEWR 08/29/2014 03:25:51 GMT 340 10 KT
KEWR 08/29/2014 03:23:51 GMT 340 10 KT
KEWR 08/29/2014 03:21:51 GMT 340 10 KT
KEWR 08/29/2014 03:19:51 GMT 340 07 KT
KEWR 08/29/2014 03:17:51 GMT 350 08 KT
KEWR 08/29/2014 03:15:51 GMT 350 09 KT
KEWR 08/29/2014 03:13:51 GMT 340 09 G14KT
KEWR 08/29/2014 03:11:51 GMT 350 09 G14KT
KEWR 08/29/2014 03:09:51 GMT 340 09 G14KT
KEWR 08/29/2014 03:07:51 GMT 350 12 KT
SAUS70 KEWR 290300
METAR KEWR 290251Z 33009KT 10SM FEW060 20/08 A3005 RMK AO2 SLP175
     T02000078 51028
FTUS80 KEWR 290233 AAA
KEWR 290231Z 2903/3006 33014G20KT P6SM FEW050
     FM290400 34010KT P6SM SKC
     FM290900 35008KT P6SM SKC
     FM291500 04005KT P6SM SKC
     FM292000 15008KT P6SM SKC
     FM300000 14005KT P6SM SKC
KEWR Forecaster Comments Not Available at This Time
ewr
Afternoon EWR Haze Potential Forecast: KEWR Haze Forecast Not Available at This Time
IS NOT AVAILABLE AT THIS TIME


******************************************************************************

KTEB Terminal Weather:
SAUS80 KTEB 290300
METAR KTEB 290251Z 33007KT 10SM CLR 19/08 A3004 RMK AO2 SLP171 T01940078
     51027
FTUS80 KTEB 290233 AAC
KTEB 290231Z 2903/2924 34005KT P6SM SKC
     FM291500 06006KT P6SM SKC
     FM291800 10005KT P6SM SKC
     FM292100 15006KT P6SM SKC
KTEB Forecaster Comments Not Available at This Time
teb

 


**************************************************************************************

KHPN Terminal Weather:
SAUS70 KHPN 290300 RRC
METAR KHPN 290256Z 33008KT 10SM CLR 17/10 A3004 RMK AO2 SLP167 T01720100
     51024
FTUS41 KHPN 290233 AAA
KHPN 290231Z 2903/2924 34009KT P6SM SKC
     FM291700 09006KT P6SM SKC
     FM291900 14006KT P6SM SKC AMD NOT SKED
KHPN Forecaster Comments Not Available at This Time
HPN


******************************************************************************

KISP Terminal Weather:
SAUS70 KISP 290300 RRD
METAR KISP 290256Z 34013KT 10SM FEW070 21/10 A3000 RMK AO2 SLP159
     T02060100 51026
FTUS51 KISP 290233 AAA
KISP 290231Z 2903/2924 34010KT P6SM FEW050
     FM290800 36006KT P6SM SKC
     FM291700 04009KT P6SM SKC
     FM292000 14009KT P6SM SKC
KISP Forecaster Comments Not Available at This Time
ISP

 


ZNY SWAP Season Information

(ZNY SWAP STATEMENT) (Click for PDF File) (ZNY BRIEFING) (Click for PDF File)

*******************************************************
***        NY AIR ROUTE TRAFFIC CONTROL CENTER      ***
***                DAILY SWAP STATEMENT             ***
*******************************************************
NY AIR ROUTE TRAFFIC CONTROL CENTER
DAILY SWAP STATEMENT
THURSDAY AUGUST 28, 2014
SWAP IS NOT EXPECTED.
ADDT'L INFO:
AZEZU-PAEPR-HANRI(L453-M201):  IMPACTS NOT EXPECTED. 
DITCH: IMPACTS NOT EXPECTED.
EAST GATES: IMPACTS NOT EXPECTED.
TOMORROW MORNINGS SWAP OUTLOOK:  SWAP IS NOT EXPECTED.

$$
GS


N90 AirSpace Impacts

N90 ZNY Gate TSTM Forecast    SWAP Day One Forecast

SWAP Day One Forecast    SWAP Day Two Outlook

National Collaborative Convective Forecast Product (CCFP) Forecasts (Mar-Oct)


Vertical Wind Profile
Untitled Document